Aviation Digital Data Service (ADDS)

Output produced by METARs form (1112 UTC 19 January 2019)
found at http://www.aviationweather.gov/metar/data/
 
VYMD 191030Z 34005KT 6000 HZ FEW020 27/15 Q1011
VYYY 191030Z 31004KT 8000 SCT018 SCT110 33/21 Q1010
TAF VYYY 190500Z 1906/2006 34006KT 8000 FEW025 
     TEMPO 1906/1912 33004KT FEW020